WALL/BPN METAR and TAF weather

Enter ICAO airport designator
Station Type Date Time Source
WALL METAR 2020/04/05 05:30 UTC NOAA

WALL 050530Z 06011KT 9999 FEW020 31/27 Q1008


Station Type Date Time Source
WALL Decoded METAR 2020/04/05 05:30 UTC NOAA

Station name not available
Apr 05, 2020 - 01:30 AM EDT / 2020.04.05 0530 UTC
Wind: from the ENE (060 degrees) at 13 MPH (11 KT):0
Visibility: greater than 7 mile(s):0
Sky conditions: mostly clear
Temperature: 87 F (31 C)
Heat index: 102.4 F (39.1 C):1
Dew Point: 80 F (27 C)
Relative Humidity: 79%
Pressure (altimeter): 29.77 in. Hg (1008 hPa)
ob: WALL 050530Z 06011KT 9999 FEW020 31/27 Q1008
cycle: 5

Station Type Date Time Source
WALL TAF 2020/04/05 06:00 UTC NOAA

TAF WALL 050500Z 0506/0612 07012KT 9999 FEW020
TEMPO 0511/0514 FEW018CB SCT018
BECMG 0516/0518 32002KT SCT018
BECMG 0604/0606 05005KT

Example: see airport list